Time;durP1;ratioP1;P1;durP2;ratioP2;P2;SDS_P1;SDS_P2;PMS_P1;PMS_P2;Temp;Humidity;BMP_temperature;BMP_pressure;BME280_temperature;BME280_humidity;BME280_pressure;Samples;Min_cycle;Max_cycle;Signal;HPM_P1;HPM_P2
2023/05/26 00:00:55;;;;;;;3.30;2.00;;;13.60;88.10;;;;;;5119051;27;20709;-68
2023/05/26 00:03:21;;;;;;;3.03;2.20;;;13.50;88.30;;;;;;5119329;27;20635;-69
2023/05/26 00:05:48;;;;;;;3.00;2.53;;;13.50;88.80;;;;;;5123197;27;20639;-69
2023/05/26 00:08:15;;;;;;;1.97;1.70;;;13.40;88.60;;;;;;5122462;27;20620;-68
2023/05/26 00:10:42;;;;;;;4.87;1.73;;;13.50;89.30;;;;;;5118796;27;21097;-69
2023/05/26 00:13:09;;;;;;;6.23;3.13;;;13.50;88.90;;;;;;5119348;27;20967;-69
2023/05/26 00:15:35;;;;;;;3.70;2.10;;;13.50;88.80;;;;;;5120601;27;21151;-69
2023/05/26 00:18:05;;;;;;;3.00;2.03;;;13.40;88.90;;;;;;5121824;27;20620;-68
2023/05/26 00:20:32;;;;;;;3.33;2.07;;;13.40;88.80;;;;;;5121890;27;20645;-69
2023/05/26 00:22:59;;;;;;;2.90;2.17;;;13.50;89.30;;;;;;5110965;27;20631;-69
2023/05/26 00:25:26;;;;;;;4.40;2.87;;;13.30;89.10;;;;;;5120804;27;20653;-69
2023/05/26 00:27:53;;;;;;;5.23;2.47;;;13.30;90.00;;;;;;5121135;27;21203;-69
2023/05/26 00:30:20;;;;;;;2.30;2.10;;;13.20;90.00;;;;;;5118192;27;20665;-69
2023/05/26 00:32:47;;;;;;;2.17;1.97;;;13.20;89.90;;;;;;5117431;27;20616;-69
2023/05/26 00:35:15;;;;;;;3.57;2.87;;;13.10;90.20;;;;;;5122201;27;20616;-69
2023/05/26 00:37:42;;;;;;;5.17;1.93;;;13.10;90.30;;;;;;5122318;27;20629;-68
2023/05/26 00:40:09;;;;;;;2.97;2.10;;;13.00;90.30;;;;;;5119297;27;20840;-69
2023/05/26 00:42:36;;;;;;;3.57;2.43;;;13.00;90.30;;;;;;5117315;27;20632;-68
2023/05/26 00:45:03;;;;;;;2.23;2.03;;;13.00;90.70;;;;;;5119201;27;20623;-68
2023/05/26 00:47:30;;;;;;;3.20;2.10;;;12.90;90.50;;;;;;5121705;27;21163;-68
2023/05/26 00:49:57;;;;;;;3.57;2.93;;;13.00;90.30;;;;;;5120620;27;20653;-68
2023/05/26 00:52:26;;;;;;;2.97;2.77;;;13.00;90.10;;;;;;5119383;27;20667;-68
2023/05/26 00:54:54;;;;;;;4.03;2.43;;;13.00;90.30;;;;;;5118649;27;20624;-68
2023/05/26 00:57:21;;;;;;;2.40;2.20;;;13.10;90.20;;;;;;5119780;27;20653;-68
2023/05/26 00:59:49;;;;;;;4.43;2.80;;;13.10;90.40;;;;;;5119383;27;20656;-68
2023/05/26 01:02:17;;;;;;;2.57;2.37;;;13.10;90.70;;;;;;5120996;27;20659;-68
2023/05/26 01:04:45;;;;;;;2.13;1.93;;;13.10;90.10;;;;;;5110232;27;20631;-68
2023/05/26 01:07:12;;;;;;;2.90;2.20;;;13.20;90.10;;;;;;5116686;27;21246;-68
2023/05/26 01:09:41;;;;;;;2.63;2.00;;;13.20;90.30;;;;;;5119638;27;20833;-68
2023/05/26 01:12:11;;;;;;;1.90;1.80;;;13.20;90.30;;;;;;5121055;27;20704;-68
2023/05/26 01:14:47;;;;;;;2.40;1.87;;;13.20;90.00;;;;;;5119925;27;21180;-68
2023/05/26 01:17:20;;;;;;;2.73;2.00;;;13.20;90.10;;;;;;5115022;27;20660;-68
2023/05/26 01:20:08;;;;;;;2.47;2.27;;;13.20;90.20;;;;;;5119017;27;20639;-68
2023/05/26 01:23:00;;;;;;;4.10;2.27;;;13.20;90.00;;;;;;5121054;27;20652;-68
2023/05/26 01:25:49;;;;;;;2.67;2.43;;;13.10;90.00;;;;;;5112876;27;20648;-68
2023/05/26 01:28:21;;;;;;;4.60;2.20;;;13.20;90.40;;;;;;5110228;27;21180;-68
2023/05/26 01:30:50;;;;;;;2.17;1.80;;;13.20;90.30;;;;;;5115470;27;20981;-68
2023/05/26 01:33:17;;;;;;;2.93;2.63;;;13.20;90.80;;;;;;5120809;27;20718;-68
2023/05/26 01:35:45;;;;;;;4.50;2.90;;;13.20;90.40;;;;;;5120920;27;21251;-68
2023/05/26 01:38:13;;;;;;;2.30;1.77;;;13.20;90.10;;;;;;5118013;27;20646;-68
2023/05/26 01:40:41;;;;;;;3.47;1.87;;;13.20;90.40;;;;;;5116842;27;20702;-68
2023/05/26 01:43:15;;;;;;;2.87;2.50;;;13.30;90.00;;;;;;5119454;27;20732;-68
2023/05/26 01:45:49;;;;;;;2.63;2.40;;;13.40;90.20;;;;;;5114443;27;20699;-68
2023/05/26 01:48:18;;;;;;;3.90;2.60;;;13.30;90.40;;;;;;5119820;27;20627;-68
2023/05/26 01:50:52;;;;;;;4.03;2.93;;;13.40;90.20;;;;;;5119280;27;20747;-68
2023/05/26 01:53:21;;;;;;;2.23;1.83;;;13.50;90.30;;;;;;5118976;27;21156;-68
2023/05/26 01:55:52;;;;;;;3.20;2.77;;;13.40;90.30;;;;;;5117043;27;20645;-68
2023/05/26 01:58:21;;;;;;;6.93;2.60;;;13.40;90.30;;;;;;5118260;27;20667;-68
2023/05/26 02:00:52;;;;;;;6.33;2.60;;;13.40;89.90;;;;;;5110089;27;21038;-68
2023/05/26 02:03:20;;;;;;;6.40;2.37;;;13.40;90.20;;;;;;5116771;27;20631;-68
2023/05/26 02:05:48;;;;;;;2.70;2.20;;;13.50;90.20;;;;;;5109679;27;20651;-68
2023/05/26 02:08:15;;;;;;;4.43;2.80;;;13.40;90.50;;;;;;5117312;27;20656;-68
2023/05/26 02:10:44;;;;;;;3.70;2.10;;;13.40;90.10;;;;;;5118657;27;20671;-68
2023/05/26 02:13:11;;;;;;;3.03;2.70;;;13.50;90.20;;;;;;5120246;27;20716;-68
2023/05/26 02:15:38;;;;;;;2.30;1.87;;;13.50;90.10;;;;;;5119027;27;20646;-68
2023/05/26 02:18:06;;;;;;;2.63;2.43;;;13.50;90.50;;;;;;5117009;27;20617;-68
2023/05/26 02:20:33;;;;;;;2.13;2.00;;;13.50;90.80;;;;;;5114625;27;21010;-68
2023/05/26 02:22:59;;;;;;;2.67;2.47;;;13.40;90.50;;;;;;5108084;27;20988;-68
2023/05/26 02:25:26;;;;;;;2.90;2.57;;;13.40;90.70;;;;;;5120078;27;21120;-68
2023/05/26 02:27:53;;;;;;;3.60;2.40;;;13.40;90.70;;;;;;5118199;27;20623;-68
2023/05/26 02:30:20;;;;;;;3.80;2.20;;;13.40;90.50;;;;;;5115966;27;20632;-68
2023/05/26 02:32:47;;;;;;;3.50;2.10;;;13.40;90.80;;;;;;5117264;27;20630;-68
2023/05/26 02:35:17;;;;;;;2.90;2.17;;;13.30;90.70;;;;;;5119924;27;20714;-69
2023/05/26 02:37:44;;;;;;;2.93;2.20;;;13.30;90.60;;;;;;5111200;27;20620;-68
2023/05/26 02:40:12;;;;;;;4.33;2.40;;;13.20;90.00;;;;;;5118584;27;20651;-68
2023/05/26 02:42:39;;;;;;;2.50;2.30;;;13.20;90.00;;;;;;5121215;27;21272;-68
2023/05/26 02:45:08;;;;;;;9.53;2.33;;;13.20;90.10;;;;;;5118025;28;20683;-68
2023/05/26 02:47:37;;;;;;;3.83;2.70;;;13.20;90.10;;;;;;5119669;27;20655;-68
2023/05/26 02:50:07;;;;;;;5.20;2.90;;;13.20;90.00;;;;;;5116616;27;20665;-69
2023/05/26 02:52:35;;;;;;;2.80;2.50;;;13.30;90.30;;;;;;5116712;28;20676;-68
2023/05/26 02:55:02;;;;;;;2.93;2.30;;;13.30;90.10;;;;;;5116492;27;20722;-68
2023/05/26 02:57:29;;;;;;;2.53;1.80;;;13.30;90.10;;;;;;5118455;28;20629;-68
2023/05/26 02:59:59;;;;;;;2.50;2.30;;;13.30;90.60;;;;;;5119126;28;20635;-68
2023/05/26 03:02:26;;;;;;;2.10;1.80;;;13.40;90.20;;;;;;5117653;28;20637;-68
2023/05/26 03:04:53;;;;;;;2.70;1.87;;;13.40;90.40;;;;;;5116139;28;20698;-68
2023/05/26 03:07:22;;;;;;;4.17;2.30;;;13.40;90.00;;;;;;5116419;28;20702;-68
2023/05/26 03:09:51;;;;;;;3.60;2.70;;;13.40;89.70;;;;;;5119074;28;21238;-68
2023/05/26 03:12:18;;;;;;;2.20;1.97;;;13.40;90.00;;;;;;5108455;28;20669;-68
2023/05/26 03:14:45;;;;;;;2.50;2.00;;;13.40;90.40;;;;;;5118163;27;20661;-68
2023/05/26 03:17:12;;;;;;;3.30;2.90;;;13.30;90.00;;;;;;5111222;28;20655;-68
2023/05/26 03:19:39;;;;;;;2.67;2.43;;;13.30;90.50;;;;;;5116704;28;20670;-68
2023/05/26 03:22:06;;;;;;;3.10;2.33;;;13.30;90.60;;;;;;5119539;28;20672;-68
2023/05/26 03:24:35;;;;;;;5.67;3.07;;;13.30;90.90;;;;;;5119454;28;20620;-68
2023/05/26 03:27:04;;;;;;;3.60;2.80;;;13.20;90.50;;;;;;5107718;28;20740;-68
2023/05/26 03:29:33;;;;;;;4.10;2.87;;;13.00;90.20;;;;;;5111264;28;20636;-68
2023/05/26 03:32:00;;;;;;;3.07;2.40;;;13.00;90.50;;;;;;5104369;28;20701;-68
2023/05/26 03:34:33;;;;;;;3.93;2.27;;;12.90;90.60;;;;;;5119672;28;20615;-68
2023/05/26 03:37:00;;;;;;;2.63;2.43;;;12.80;91.10;;;;;;5117525;28;20647;-68
2023/05/26 03:39:27;;;;;;;3.20;2.00;;;12.90;91.10;;;;;;5115740;28;20686;-68
2023/05/26 03:41:54;;;;;;;5.60;3.00;;;12.90;91.40;;;;;;5123611;28;20724;-67
2023/05/26 03:44:23;;;;;;;2.90;2.27;;;12.80;91.70;;;;;;5115602;28;21045;-67
2023/05/26 03:46:50;;;;;;;5.63;3.00;;;12.70;91.70;;;;;;5115291;28;20649;-67
2023/05/26 03:49:17;;;;;;;4.67;2.60;;;12.70;91.60;;;;;;5117635;28;20720;-68
2023/05/26 03:51:43;;;;;;;7.27;2.80;;;12.80;91.80;;;;;;5118209;27;20672;-68
2023/05/26 03:54:10;;;;;;;4.10;2.70;;;12.70;91.70;;;;;;5118475;28;20852;-68
2023/05/26 03:56:38;;;;;;;4.03;2.83;;;12.70;91.90;;;;;;5115657;28;20629;-68
2023/05/26 03:59:05;;;;;;;3.47;2.60;;;12.80;91.90;;;;;;5115874;28;20983;-68
2023/05/26 04:01:36;;;;;;;2.93;2.37;;;12.80;92.00;;;;;;5117876;28;21283;-68
2023/05/26 04:04:02;;;;;;;2.60;2.30;;;12.80;92.20;;;;;;5119147;28;20727;-68
2023/05/26 04:06:30;;;;;;;4.77;2.87;;;12.70;91.60;;;;;;5112206;28;20977;-69
2023/05/26 04:08:59;;;;;;;3.03;2.80;;;12.50;91.90;;;;;;5117947;27;21073;-68
2023/05/26 04:11:26;;;;;;;2.30;2.03;;;12.50;92.30;;;;;;5118554;27;20656;-68
2023/05/26 04:13:53;;;;;;;3.60;2.87;;;12.40;92.60;;;;;;5122423;27;20624;-69
2023/05/26 04:16:20;;;;;;;2.93;2.60;;;12.40;92.30;;;;;;5122698;27;20661;-70
2023/05/26 04:18:49;;;;;;;3.50;2.93;;;12.40;92.50;;;;;;5120233;27;20714;-68
2023/05/26 04:21:16;;;;;;;3.20;2.80;;;12.40;92.70;;;;;;5120556;27;20661;-69
2023/05/26 04:23:43;;;;;;;4.27;2.47;;;12.40;92.80;;;;;;5121145;27;21114;-68
2023/05/26 04:26:09;;;;;;;3.40;3.10;;;12.40;92.60;;;;;;5118811;27;21219;-69
2023/05/26 04:28:36;;;;;;;3.43;3.13;;;12.40;92.70;;;;;;5119209;27;20969;-69
2023/05/26 04:31:03;;;;;;;2.73;2.30;;;12.50;92.90;;;;;;5121189;27;20639;-68
2023/05/26 04:33:30;;;;;;;4.67;3.37;;;12.50;93.00;;;;;;5122181;27;20613;-68
2023/05/26 04:35:58;;;;;;;3.23;2.93;;;12.50;92.80;;;;;;5117093;27;20645;-69
2023/05/26 04:38:25;;;;;;;3.97;3.00;;;12.60;92.50;;;;;;5121711;27;20629;-69
2023/05/26 04:40:52;;;;;;;4.93;3.50;;;12.70;92.70;;;;;;5120907;27;21170;-69
2023/05/26 04:43:23;;;;;;;3.10;2.80;;;12.70;92.40;;;;;;5121900;27;21193;-68
2023/05/26 04:45:51;;;;;;;4.33;3.50;;;12.70;92.60;;;;;;5121997;27;20658;-68
2023/05/26 04:48:20;;;;;;;3.43;2.20;;;12.60;92.10;;;;;;5119187;27;20721;-68
2023/05/26 04:50:47;;;;;;;3.53;2.60;;;12.70;92.40;;;;;;5117157;27;20651;-69
2023/05/26 04:53:15;;;;;;;4.37;3.23;;;12.70;92.30;;;;;;5118670;27;20675;-69
2023/05/26 04:55:42;;;;;;;2.87;2.57;;;12.70;92.40;;;;;;5121311;27;20656;-69
2023/05/26 04:58:09;;;;;;;8.13;3.27;;;12.80;92.40;;;;;;5121545;27;20620;-69
2023/05/26 05:00:36;;;;;;;4.07;2.90;;;12.80;92.40;;;;;;5117565;27;20647;-69
2023/05/26 05:03:03;;;;;;;5.73;2.70;;;12.90;92.10;;;;;;5118471;27;20664;-69
2023/05/26 05:05:30;;;;;;;3.97;2.83;;;12.90;92.00;;;;;;5120606;27;20655;-69
2023/05/26 05:07:57;;;;;;;3.07;2.63;;;13.00;92.10;;;;;;5121684;27;21491;-69
2023/05/26 05:10:25;;;;;;;4.57;3.20;;;13.10;91.90;;;;;;5120523;27;21063;-69
2023/05/26 05:12:53;;;;;;;3.40;3.10;;;13.10;91.80;;;;;;5113138;27;21025;-70
2023/05/26 05:15:20;;;;;;;3.03;2.67;;;13.20;91.70;;;;;;5118069;27;20980;-70
2023/05/26 05:17:47;;;;;;;3.33;2.47;;;13.20;91.70;;;;;;5121458;27;20608;-69
2023/05/26 05:20:13;;;;;;;5.00;2.97;;;13.20;91.50;;;;;;5119326;27;21008;-69
2023/05/26 05:22:40;;;;;;;3.70;2.73;;;13.20;91.70;;;;;;5120535;27;20627;-69
2023/05/26 05:25:08;;;;;;;3.60;3.00;;;13.30;91.60;;;;;;5118144;27;20651;-69
2023/05/26 05:27:36;;;;;;;5.07;3.47;;;13.40;91.70;;;;;;5118175;27;20653;-69
2023/05/26 05:30:03;;;;;;;4.27;3.87;;;13.40;91.20;;;;;;5108246;27;20621;-69
2023/05/26 05:32:30;;;;;;;8.37;3.03;;;13.40;91.20;;;;;;5112668;27;21290;-69
2023/05/26 05:34:57;;;;;;;3.90;2.80;;;13.50;91.10;;;;;;5116168;27;20671;-70
2023/05/26 05:37:24;;;;;;;4.97;3.37;;;13.40;91.00;;;;;;5117960;27;20655;-69
2023/05/26 05:39:51;;;;;;;3.80;2.40;;;13.40;90.80;;;;;;5117398;27;20933;-69
2023/05/26 05:42:18;;;;;;;3.50;2.67;;;13.30;91.20;;;;;;5125310;27;21243;-69
2023/05/26 05:44:46;;;;;;;3.57;3.00;;;13.30;91.40;;;;;;5117559;27;20615;-69
2023/05/26 05:47:12;;;;;;;5.07;3.47;;;13.30;91.50;;;;;;5107092;27;20722;-70
2023/05/26 05:49:41;;;;;;;3.30;3.10;;;13.40;91.30;;;;;;5106402;27;20751;-69
2023/05/26 05:52:08;;;;;;;4.67;3.37;;;13.50;91.00;;;;;;5110517;27;20668;-69
2023/05/26 05:54:35;;;;;;;4.30;3.70;;;13.60;91.10;;;;;;5114196;27;20658;-68
2023/05/26 05:57:02;;;;;;;9.23;4.60;;;13.60;90.70;;;;;;5107606;27;20746;-68
2023/05/26 05:59:29;;;;;;;4.03;3.23;;;13.60;90.80;;;;;;5103311;27;20627;-69
2023/05/26 06:01:57;;;;;;;3.97;2.63;;;13.70;90.50;;;;;;5100311;27;20755;-69
2023/05/26 06:04:24;;;;;;;5.83;3.00;;;13.80;90.50;;;;;;5101467;28;20623;-69
2023/05/26 06:06:51;;;;;;;5.77;3.30;;;14.00;90.40;;;;;;5108035;27;20648;-69
2023/05/26 06:09:17;;;;;;;6.80;2.57;;;14.00;90.50;;;;;;5103996;27;20625;-69
2023/05/26 06:11:44;;;;;;;5.57;3.53;;;14.00;90.20;;;;;;5105677;27;21204;-68
2023/05/26 06:14:11;;;;;;;3.70;3.40;;;14.30;90.00;;;;;;5119701;27;20618;-69
2023/05/26 06:16:38;;;;;;;2.80;2.47;;;14.20;89.20;;;;;;5109941;27;20652;-69
2023/05/26 06:19:06;;;;;;;3.07;2.73;;;14.30;90.10;;;;;;5103139;27;20634;-69
2023/05/26 06:21:33;;;;;;;4.10;3.47;;;14.30;89.60;;;;;;5105534;27;20712;-68
2023/05/26 06:23:59;;;;;;;3.73;3.40;;;14.20;88.50;;;;;;5113588;27;20625;-69
2023/05/26 06:26:27;;;;;;;4.93;3.80;;;14.20;89.20;;;;;;5120267;27;20657;-69
2023/05/26 06:28:53;;;;;;;4.37;3.30;;;14.30;89.60;;;;;;5107580;27;20629;-69
2023/05/26 06:31:20;;;;;;;3.80;3.40;;;14.50;89.80;;;;;;5111143;27;20664;-69
2023/05/26 06:33:47;;;;;;;4.80;3.43;;;15.00;89.60;;;;;;5116464;27;20660;-69
2023/05/26 06:36:15;;;;;;;3.80;3.40;;;15.20;86.70;;;;;;5112175;27;20643;-69
2023/05/26 06:38:42;;;;;;;5.00;3.53;;;15.00;87.70;;;;;;5117186;27;20621;-69
2023/05/26 06:41:09;;;;;;;5.83;3.30;;;15.30;88.60;;;;;;5113305;27;20661;-69
2023/05/26 06:43:36;;;;;;;3.33;2.80;;;15.70;87.20;;;;;;5111816;27;20758;-69
2023/05/26 06:46:03;;;;;;;3.17;2.87;;;15.40;86.30;;;;;;5123806;27;20647;-68
2023/05/26 06:48:29;;;;;;;4.53;4.10;;;15.00;86.00;;;;;;5121215;27;20627;-69
2023/05/26 06:50:56;;;;;;;2.77;2.57;;;14.90;88.40;;;;;;5113124;27;20679;-69
2023/05/26 06:53:24;;;;;;;3.63;3.20;;;15.00;88.80;;;;;;5117066;27;20719;-68
2023/05/26 06:55:51;;;;;;;3.33;3.10;;;15.00;88.30;;;;;;5107186;27;20640;-69
2023/05/26 06:58:18;;;;;;;5.70;3.27;;;15.40;87.50;;;;;;5120989;28;20631;-69
2023/05/26 07:00:56;;;;;;;3.03;2.70;;;15.80;86.20;;;;;;5113890;28;20653;-69
2023/05/26 07:03:23;;;;;;;4.60;4.10;;;15.70;86.30;;;;;;5117244;28;20622;-69
2023/05/26 07:05:50;;;;;;;3.47;3.17;;;15.70;86.60;;;;;;5118483;28;20638;-68
2023/05/26 07:08:17;;;;;;;4.67;3.00;;;15.50;85.30;;;;;;5113776;28;20622;-69
2023/05/26 07:10:45;;;;;;;5.50;3.30;;;15.80;85.10;;;;;;5113283;27;20650;-69
2023/05/26 07:13:12;;;;;;;4.00;3.20;;;15.60;84.40;;;;;;5117810;28;20662;-69
2023/05/26 07:15:38;;;;;;;3.60;3.30;;;15.90;85.70;;;;;;5110965;28;20653;-69
2023/05/26 07:18:05;;;;;;;4.33;3.27;;;15.70;84.10;;;;;;5119818;27;20698;-69
2023/05/26 07:20:32;;;;;;;3.90;3.50;;;15.80;85.90;;;;;;5109642;27;20647;-69
2023/05/26 07:22:59;;;;;;;3.40;2.93;;;15.80;85.10;;;;;;5122156;27;21208;-69
2023/05/26 07:25:26;;;;;;;6.47;3.00;;;15.70;85.40;;;;;;5114157;28;20682;-69
2023/05/26 07:27:54;;;;;;;4.93;4.63;;;16.00;84.80;;;;;;5118557;28;20638;-69
2023/05/26 07:30:21;;;;;;;4.77;3.40;;;16.00;84.90;;;;;;5109227;27;20730;-69
2023/05/26 07:32:48;;;;;;;4.13;2.93;;;16.00;85.70;;;;;;5115671;28;20663;-68
2023/05/26 07:35:14;;;;;;;4.27;3.30;;;16.00;84.90;;;;;;5118743;27;20619;-69
2023/05/26 07:37:41;;;;;;;5.83;4.37;;;16.40;85.40;;;;;;5118386;28;20621;-69
2023/05/26 07:40:09;;;;;;;5.43;4.40;;;16.90;84.00;;;;;;5114326;28;20621;-69
2023/05/26 07:42:36;;;;;;;3.10;2.80;;;16.60;83.10;;;;;;5116102;27;20616;-69
2023/05/26 07:45:04;;;;;;;5.43;3.50;;;16.80;83.30;;;;;;5121401;27;20630;-69
2023/05/26 07:47:31;;;;;;;3.60;3.30;;;16.90;83.50;;;;;;5114221;27;20763;-69
2023/05/26 07:49:58;;;;;;;5.50;3.40;;;16.90;83.70;;;;;;5114146;27;20646;-69
2023/05/26 07:52:25;;;;;;;4.30;3.63;;;16.90;83.70;;;;;;5121121;27;20672;-69
2023/05/26 07:54:52;;;;;;;3.50;3.17;;;17.00;84.10;;;;;;5119268;27;20721;-69
2023/05/26 07:57:18;;;;;;;6.70;3.00;;;17.30;83.00;;;;;;5121170;27;20983;-69
2023/05/26 07:59:45;;;;;;;4.10;3.47;;;17.50;82.30;;;;;;5122607;27;20622;-69
2023/05/26 08:02:14;;;;;;;3.53;3.23;;;17.60;81.90;;;;;;5112389;27;21262;-69
2023/05/26 08:04:40;;;;;;;4.73;3.40;;;17.20;81.00;;;;;;5122278;27;20619;-68
2023/05/26 08:07:07;;;;;;;6.03;3.33;;;17.00;80.20;;;;;;5122769;27;20643;-69
2023/05/26 08:09:34;;;;;;;5.40;3.03;;;17.10;82.10;;;;;;5119824;27;20627;-69
2023/05/26 08:12:01;;;;;;;6.40;3.67;;;17.10;81.30;;;;;;5118686;27;20732;-69
2023/05/26 08:14:27;;;;;;;4.47;3.50;;;17.50;82.50;;;;;;5119698;27;20979;-69
2023/05/26 08:16:54;;;;;;;4.30;3.90;;;17.60;81.70;;;;;;5122806;27;20646;-69
2023/05/26 08:19:22;;;;;;;5.43;3.70;;;17.70;81.60;;;;;;5118344;27;20660;-69
2023/05/26 08:21:49;;;;;;;5.03;3.70;;;17.90;80.40;;;;;;5122002;27;20652;-69
2023/05/26 08:24:16;;;;;;;3.80;3.43;;;17.70;80.10;;;;;;5118578;27;20620;-69
2023/05/26 08:26:43;;;;;;;7.77;3.43;;;17.80;80.90;;;;;;5120130;27;20660;-69
2023/05/26 08:29:10;;;;;;;5.30;4.10;;;17.80;80.60;;;;;;5122556;27;20617;-69
2023/05/26 08:31:37;;;;;;;9.30;3.87;;;17.80;80.70;;;;;;5121523;27;20658;-69
2023/05/26 08:34:04;;;;;;;3.80;3.47;;;18.30;79.80;;;;;;5104390;27;21020;-69
2023/05/26 08:36:32;;;;;;;5.23;4.03;;;18.40;79.90;;;;;;5095984;27;21305;-69
2023/05/26 08:38:59;;;;;;;3.60;3.40;;;18.70;79.20;;;;;;5120232;27;20624;-69
2023/05/26 08:41:33;;;;;;;5.83;3.40;;;18.80;78.30;;;;;;5121535;27;20741;-69
2023/05/26 08:44:02;;;;;;;4.23;2.97;;;18.80;80.90;;;;;;5121165;27;20954;-69
2023/05/26 08:46:32;;;;;;;3.87;3.10;;;18.90;78.90;;;;;;5117991;27;20646;-69
2023/05/26 08:48:59;;;;;;;4.90;3.60;;;19.00;78.60;;;;;;5113844;27;20632;-69
2023/05/26 08:51:28;;;;;;;3.57;3.20;;;19.20;78.20;;;;;;5107675;27;20655;-69
2023/05/26 08:53:56;;;;;;;4.87;4.00;;;19.20;79.30;;;;;;5117797;27;20660;-69
2023/05/26 08:56:23;;;;;;;4.00;3.50;;;19.30;77.60;;;;;;5120830;27;20742;-69
2023/05/26 08:58:52;;;;;;;3.63;3.17;;;19.40;79.20;;;;;;5117695;27;20624;-69
2023/05/26 09:01:19;;;;;;;4.03;3.73;;;19.60;78.30;;;;;;5118554;27;21234;-69
2023/05/26 09:03:46;;;;;;;4.67;3.20;;;19.30;75.00;;;;;;5121720;27;20945;-69
2023/05/26 09:06:13;;;;;;;5.33;3.70;;;19.30;77.00;;;;;;5117575;27;20652;-69
2023/05/26 09:08:39;;;;;;;4.63;4.03;;;19.30;78.10;;;;;;5120808;27;20615;-69
2023/05/26 09:11:22;;;;;;;3.40;3.10;;;19.50;76.40;;;;;;5121024;27;21227;-69
2023/05/26 09:13:52;;;;;;;4.00;3.67;;;19.80;73.70;;;;;;5106374;27;21278;-69
2023/05/26 09:16:24;;;;;;;5.23;3.87;;;20.00;75.80;;;;;;5116276;27;20651;-69
2023/05/26 09:18:56;;;;;;;4.50;3.70;;;20.00;75.80;;;;;;5121064;27;20726;-69
2023/05/26 09:21:24;;;;;;;4.13;3.73;;;20.00;76.40;;;;;;5113725;27;20657;-69
2023/05/26 09:23:55;;;;;;;3.40;2.53;;;19.80;73.40;;;;;;5111092;27;20631;-69
2023/05/26 09:26:28;;;;;;;4.90;4.07;;;19.70;74.60;;;;;;5118204;27;20640;-69
2023/05/26 09:28:55;;;;;;;5.03;4.10;;;20.00;75.00;;;;;;5120186;27;20620;-69
2023/05/26 09:31:22;;;;;;;4.13;3.73;;;20.40;74.60;;;;;;5120076;27;20762;-69
2023/05/26 09:33:49;;;;;;;5.40;4.00;;;20.70;74.00;;;;;;5120381;27;20658;-69
2023/05/26 09:36:16;;;;;;;4.27;3.20;;;20.70;73.40;;;;;;5111545;27;21004;-69
2023/05/26 09:38:44;;;;;;;4.37;3.97;;;20.60;74.00;;;;;;5120633;27;20629;-69
2023/05/26 09:41:11;;;;;;;6.97;4.20;;;20.80;73.60;;;;;;5119761;27;20646;-69
2023/05/26 09:43:39;;;;;;;4.40;3.90;;;20.90;75.10;;;;;;5121314;27;20623;-69
2023/05/26 09:46:20;;;;;;;4.57;3.60;;;20.90;71.70;;;;;;5119619;27;20647;-69
2023/05/26 09:48:50;;;;;;;3.30;3.00;;;21.10;72.50;;;;;;5117590;27;21115;-69
2023/05/26 09:51:20;;;;;;;4.90;4.23;;;21.00;73.20;;;;;;5115428;27;20649;-69
2023/05/26 09:53:46;;;;;;;3.70;3.40;;;21.20;72.30;;;;;;5120495;27;20666;-69
2023/05/26 09:56:17;;;;;;;7.40;4.17;;;21.30;72.00;;;;;;5119628;27;20662;-69
2023/05/26 09:58:48;;;;;;;4.17;3.87;;;21.40;73.40;;;;;;5117167;27;20632;-69
2023/05/26 10:01:15;;;;;;;6.33;4.20;;;21.50;72.70;;;;;;5116955;27;20744;-69
2023/05/26 10:03:42;;;;;;;4.37;4.00;;;21.60;71.90;;;;;;5120303;27;20666;-69
2023/05/26 10:06:09;;;;;;;3.83;3.13;;;21.60;70.80;;;;;;5120966;27;20651;-69
2023/05/26 10:08:39;;;;;;;4.43;3.30;;;21.70;70.30;;;;;;5117398;27;20730;-69
2023/05/26 10:11:07;;;;;;;5.67;4.27;;;21.80;71.60;;;;;;5116708;27;20660;-69
2023/05/26 10:13:35;;;;;;;4.13;3.70;;;21.80;69.20;;;;;;5118663;27;20713;-69
2023/05/26 10:16:04;;;;;;;3.80;3.50;;;21.70;70.40;;;;;;5120018;27;20656;-69
2023/05/26 10:18:30;;;;;;;4.50;4.10;;;21.60;70.60;;;;;;5119736;27;20623;-69
2023/05/26 10:21:00;;;;;;;3.37;3.00;;;21.80;72.60;;;;;;5116245;27;20658;-69
2023/05/26 10:23:32;;;;;;;4.00;3.70;;;21.90;71.70;;;;;;5116364;27;21044;-69
2023/05/26 10:26:04;;;;;;;2.93;2.73;;;21.80;70.40;;;;;;5110684;27;20655;-69
2023/05/26 10:28:38;;;;;;;5.57;4.60;;;22.10;71.80;;;;;;5116330;27;20624;-69
2023/05/26 10:31:06;;;;;;;4.20;3.37;;;22.30;69.50;;;;;;5107702;27;20663;-69
2023/05/26 10:33:41;;;;;;;3.10;2.80;;;22.50;70.50;;;;;;5116679;27;21020;-69
2023/05/26 10:36:13;;;;;;;4.27;3.87;;;22.20;70.90;;;;;;5108498;27;21119;-69
2023/05/26 10:38:46;;;;;;;3.57;3.27;;;22.20;68.50;;;;;;5116118;27;20632;-69
2023/05/26 10:41:29;;;;;;;4.57;3.50;;;22.00;69.60;;;;;;5118818;27;20647;-69
2023/05/26 10:43:56;;;;;;;4.43;4.03;;;22.30;71.70;;;;;;5119960;27;20629;-69
2023/05/26 10:46:36;;;;;;;4.27;3.60;;;22.70;71.60;;;;;;5116305;27;20697;-69
2023/05/26 10:49:02;;;;;;;4.43;4.03;;;23.00;71.50;;;;;;5116884;27;20626;-69
2023/05/26 10:51:31;;;;;;;4.93;4.43;;;22.50;66.90;;;;;;5116713;27;20654;-69
2023/05/26 10:53:58;;;;;;;4.40;4.00;;;22.30;68.40;;;;;;5118895;27;20655;-69
2023/05/26 10:56:34;;;;;;;4.23;3.83;;;22.10;69.30;;;;;;5116432;28;20678;-69
2023/05/26 10:59:03;;;;;;;4.63;3.77;;;22.50;71.00;;;;;;5116460;28;20624;-69
2023/05/26 11:01:32;;;;;;;5.17;3.90;;;22.50;70.70;;;;;;5118486;28;21247;-69
2023/05/26 11:04:09;;;;;;;5.23;3.20;;;22.70;70.60;;;;;;5119407;28;20633;-69
2023/05/26 11:06:45;;;;;;;3.83;3.53;;;23.00;69.80;;;;;;5116855;28;20651;-69
2023/05/26 11:09:12;;;;;;;7.37;4.40;;;23.20;69.70;;;;;;5109772;28;20621;-69
2023/05/26 11:11:50;;;;;;;4.30;3.43;;;23.50;69.40;;;;;;5118182;28;20647;-69
2023/05/26 11:14:23;;;;;;;7.20;5.73;;;23.60;66.20;;;;;;5119118;28;20669;-68
2023/05/26 11:16:52;;;;;;;5.53;5.13;;;23.80;66.60;;;;;;5108687;27;20678;-67
2023/05/26 11:19:28;;;;;;;4.47;3.93;;;24.00;65.80;;;;;;5119702;27;20638;-68
2023/05/26 11:21:55;;;;;;;4.60;4.20;;;24.40;64.10;;;;;;5112071;27;20677;-68
2023/05/26 11:24:22;;;;;;;4.17;3.77;;;24.60;62.60;;;;;;5116597;27;21164;-68
2023/05/26 11:26:50;;;;;;;5.10;4.37;;;24.50;63.00;;;;;;5120579;27;20665;-68
2023/05/26 11:29:16;;;;;;;4.93;4.43;;;24.80;61.60;;;;;;5123648;27;20630;-68
2023/05/26 11:31:48;;;;;;;3.77;3.07;;;25.20;61.40;;;;;;5122599;27;20668;-68
2023/05/26 11:34:16;;;;;;;3.50;3.20;;;25.60;61.20;;;;;;5120314;27;21051;-68
2023/05/26 11:36:47;;;;;;;5.30;4.27;;;25.90;59.40;;;;;;5120122;27;20651;-68
2023/05/26 11:39:15;;;;;;;5.97;3.23;;;25.90;59.50;;;;;;5111430;27;20632;-68
2023/05/26 11:41:42;;;;;;;3.83;3.53;;;26.10;61.80;;;;;;5124113;27;21091;-69
2023/05/26 11:44:09;;;;;;;4.13;3.73;;;26.30;59.70;;;;;;5117640;27;20728;-69
2023/05/26 11:46:38;;;;;;;4.20;3.83;;;26.60;58.20;;;;;;5119772;27;21047;-69
2023/05/26 11:49:05;;;;;;;4.80;3.93;;;26.60;58.90;;;;;;5121186;27;20622;-69
2023/05/26 11:51:34;;;;;;;3.83;3.33;;;27.10;57.20;;;;;;5120661;27;20654;-69
2023/05/26 11:54:03;;;;;;;4.10;3.80;;;27.40;56.80;;;;;;5122395;27;21009;-69
2023/05/26 11:56:35;;;;;;;4.17;3.27;;;27.90;57.20;;;;;;5106547;27;21063;-69
2023/05/26 11:59:02;;;;;;;3.03;2.73;;;28.50;56.80;;;;;;5121093;27;20753;-69
2023/05/26 12:01:31;;;;;;;3.90;3.57;;;29.10;56.60;;;;;;5121840;27;20686;-69
2023/05/26 12:03:59;;;;;;;5.73;3.60;;;29.70;53.20;;;;;;5122693;27;20627;-69
2023/05/26 12:06:28;;;;;;;3.20;2.90;;;29.50;52.50;;;;;;5120522;27;20657;-69
2023/05/26 12:08:58;;;;;;;3.50;3.20;;;29.60;52.70;;;;;;5119324;27;20621;-70
2023/05/26 12:11:31;;;;;;;4.07;3.77;;;30.20;51.20;;;;;;5114044;27;20652;-70
2023/05/26 12:13:59;;;;;;;3.83;3.43;;;30.70;51.20;;;;;;5122589;27;20654;-70
2023/05/26 12:16:30;;;;;;;3.70;3.40;;;30.30;51.90;;;;;;5122363;27;20651;-70
2023/05/26 12:18:59;;;;;;;4.67;3.43;;;29.80;51.20;;;;;;5119272;27;21256;-70
2023/05/26 12:21:27;;;;;;;4.70;3.77;;;30.70;51.60;;;;;;5119250;27;20652;-70
2023/05/26 12:23:57;;;;;;;4.07;3.77;;;31.20;50.70;;;;;;5122180;27;21227;-70
2023/05/26 12:26:27;;;;;;;4.43;4.00;;;31.30;50.40;;;;;;5117411;27;21018;-70
2023/05/26 12:29:11;;;;;;;3.83;3.53;;;31.40;48.60;;;;;;5115789;27;20760;-70
2023/05/26 12:31:43;;;;;;;3.60;3.33;;;31.90;48.90;;;;;;5121246;27;20749;-70
2023/05/26 12:34:11;;;;;;;4.90;3.73;;;32.50;48.40;;;;;;5111254;27;21063;-70
2023/05/26 12:36:38;;;;;;;2.87;2.67;;;32.00;48.90;;;;;;5119006;27;20696;-70
2023/05/26 12:39:07;;;;;;;4.17;3.80;;;31.40;48.30;;;;;;5121274;27;20755;-70
2023/05/26 12:41:36;;;;;;;4.33;3.93;;;30.80;48.30;;;;;;5120839;27;21141;-69
2023/05/26 12:44:04;;;;;;;3.97;3.10;;;30.90;50.20;;;;;;5119057;27;20619;-70
2023/05/26 12:46:31;;;;;;;5.00;4.60;;;31.00;50.00;;;;;;5121918;27;20642;-70
2023/05/26 12:48:58;;;;;;;3.73;3.37;;;31.60;48.50;;;;;;5122290;27;20645;-70
2023/05/26 12:51:26;;;;;;;3.87;3.57;;;31.90;48.40;;;;;;5117064;27;20655;-70
2023/05/26 12:53:53;;;;;;;3.47;3.27;;;32.30;47.70;;;;;;5118599;27;20968;-70